Time;durP1;ratioP1;P1;durP2;ratioP2;P2;SDS_P1;SDS_P2;PMS_P1;PMS_P2;Temp;Humidity;BMP_temperature;BMP_pressure;BME280_temperature;BME280_humidity;BME280_pressure;Samples;Min_cycle;Max_cycle;Signal;HPM_P1;HPM_P2
2022/08/17 00:00:25;;;;;;;6.03;5.43;;;21.20;99.90;;;;;;5123284;28;20506;-80
2022/08/17 00:03:17;;;;;;;7.10;5.83;;;21.00;99.90;;;;;;5122485;28;20429;-80
2022/08/17 00:06:07;;;;;;;7.37;6.10;;;20.90;99.90;;;;;;5122337;28;20384;-80
2022/08/17 00:08:54;;;;;;;6.47;5.93;;;20.80;99.90;;;;;;5106573;28;20950;-80
2022/08/17 00:11:42;;;;;;;7.43;4.97;;;20.90;99.90;;;;;;5121924;28;20416;-81
2022/08/17 00:14:27;;;;;;;6.07;5.57;;;20.80;99.90;;;;;;5122957;28;20379;-79
2022/08/17 00:17:12;;;;;;;7.73;5.07;;;20.70;99.90;;;;;;5122553;28;20414;-80
2022/08/17 00:19:56;;;;;;;9.70;6.10;;;20.60;99.90;;;;;;5122611;28;20383;-80
2022/08/17 00:22:40;;;;;;;5.73;5.23;;;20.30;99.90;;;;;;5106307;28;20410;-80
2022/08/17 00:25:25;;;;;;;9.33;5.50;;;20.10;99.90;;;;;;5122170;28;20386;-80
2022/08/17 00:28:11;;;;;;;6.00;5.40;;;19.90;99.90;;;;;;5107692;28;20957;-81
2022/08/17 00:30:55;;;;;;;7.20;5.70;;;19.60;99.90;;;;;;5122996;28;20407;-81
2022/08/17 00:33:42;;;;;;;12.13;6.60;;;19.60;99.90;;;;;;5124876;28;20384;-81
2022/08/17 00:36:27;;;;;;;6.20;5.60;;;19.50;99.90;;;;;;5124373;28;20701;-79
2022/08/17 00:39:11;;;;;;;6.57;5.97;;;19.50;99.90;;;;;;5135547;28;20460;-78
2022/08/17 00:41:56;;;;;;;9.60;5.90;;;19.50;99.90;;;;;;5129587;28;20387;-81
2022/08/17 00:44:41;;;;;;;11.90;5.80;;;19.50;99.90;;;;;;5122298;28;20494;-81
2022/08/17 00:47:25;;;;;;;6.93;6.03;;;19.50;99.90;;;;;;5122959;28;20507;-80
2022/08/17 00:50:13;;;;;;;8.50;7.07;;;19.50;99.90;;;;;;5122761;28;20383;-80
2022/08/17 00:52:57;;;;;;;7.97;6.07;;;19.40;99.90;;;;;;5122767;28;20925;-81
2022/08/17 00:55:42;;;;;;;9.07;5.70;;;19.40;99.90;;;;;;5107272;28;20768;-80
2022/08/17 00:58:27;;;;;;;11.33;7.03;;;19.50;99.90;;;;;;5107737;28;20379;-80
2022/08/17 01:01:13;;;;;;;6.43;5.83;;;19.70;99.90;;;;;;5122163;28;20507;-81
2022/08/17 01:03:58;;;;;;;7.93;5.67;;;20.00;99.90;;;;;;5121942;28;20406;-81
2022/08/17 01:06:44;;;;;;;6.67;6.07;;;20.30;99.90;;;;;;5122575;28;20418;-81
2022/08/17 01:09:29;;;;;;;6.83;6.23;;;20.50;99.90;;;;;;5121827;28;20403;-81
2022/08/17 01:12:14;;;;;;;7.47;6.77;;;20.50;99.90;;;;;;5121880;28;20391;-81
2022/08/17 01:14:58;;;;;;;7.53;6.63;;;20.50;99.90;;;;;;5121441;28;20378;-81
2022/08/17 01:17:44;;;;;;;7.80;7.10;;;20.50;99.90;;;;;;5122150;28;20415;-81
2022/08/17 01:20:29;;;;;;;13.50;7.33;;;20.50;99.90;;;;;;5122054;28;20386;-81
2022/08/17 01:23:14;;;;;;;8.23;7.07;;;20.60;99.90;;;;;;5122007;28;20391;-81
2022/08/17 01:26:01;;;;;;;8.20;7.03;;;20.70;99.90;;;;;;5121566;28;20379;-81
2022/08/17 01:28:46;;;;;;;6.70;6.07;;;20.70;99.90;;;;;;5121950;28;20449;-80
2022/08/17 01:31:36;;;;;;;7.33;6.73;;;20.80;99.90;;;;;;5122107;28;20483;-81
2022/08/17 01:34:21;;;;;;;7.80;7.10;;;20.70;99.90;;;;;;5121756;28;20457;-81
2022/08/17 01:37:05;;;;;;;10.20;6.10;;;20.70;99.90;;;;;;5122186;28;20391;-81
2022/08/17 01:39:54;;;;;;;7.60;6.83;;;20.70;99.90;;;;;;5121576;28;20454;-81
2022/08/17 01:42:59;;;;;;;6.73;6.03;;;20.60;99.90;;;;;;5107202;28;20383;-81
2022/08/17 01:45:47;;;;;;;8.70;5.57;;;20.50;99.90;;;;;;5122469;28;20407;-81
2022/08/17 01:48:34;;;;;;;9.60;5.90;;;20.50;99.90;;;;;;5126824;28;20454;-79
2022/08/17 01:51:19;;;;;;;7.37;6.53;;;20.50;99.90;;;;;;5133758;28;20387;-79
2022/08/17 01:54:09;;;;;;;7.47;6.70;;;20.40;99.90;;;;;;5132671;28;20405;-80
2022/08/17 01:56:55;;;;;;;8.73;5.70;;;20.50;99.90;;;;;;5124092;28;20431;-81
2022/08/17 01:59:39;;;;;;;7.10;6.40;;;20.50;99.90;;;;;;5108699;28;20407;-78
2022/08/17 02:02:24;;;;;;;7.13;6.53;;;20.50;99.90;;;;;;5122134;28;20407;-81
2022/08/17 02:05:09;;;;;;;9.30;5.80;;;20.50;99.90;;;;;;5121516;28;20379;-81
2022/08/17 02:07:53;;;;;;;7.37;6.37;;;20.50;99.90;;;;;;5122067;28;20443;-81
2022/08/17 02:10:38;;;;;;;6.60;5.97;;;20.50;99.90;;;;;;5122354;28;20380;-80
2022/08/17 02:13:23;;;;;;;7.43;6.20;;;20.50;99.90;;;;;;5128164;28;20517;-78
2022/08/17 02:16:08;;;;;;;10.70;7.00;;;20.30;99.90;;;;;;5127906;28;20388;-81
2022/08/17 02:18:52;;;;;;;6.50;5.90;;;20.30;99.90;;;;;;5121051;28;20629;-79
2022/08/17 02:21:38;;;;;;;6.93;6.17;;;20.40;99.90;;;;;;5131263;28;20363;-80
2022/08/17 02:24:26;;;;;;;6.93;5.40;;;20.40;99.90;;;;;;5133573;28;20399;-79
2022/08/17 02:27:11;;;;;;;12.37;6.63;;;20.40;99.90;;;;;;5135187;28;20461;-78
2022/08/17 02:29:56;;;;;;;6.40;5.70;;;20.30;99.90;;;;;;5127254;28;20382;-79
2022/08/17 02:32:40;;;;;;;7.07;5.87;;;20.40;99.90;;;;;;5123360;28;20402;-80
2022/08/17 02:35:25;;;;;;;8.13;6.33;;;20.40;99.90;;;;;;5123047;28;20379;-79
2022/08/17 02:38:10;;;;;;;8.13;7.33;;;20.40;99.90;;;;;;5107321;28;20384;-80
2022/08/17 02:40:54;;;;;;;8.37;6.40;;;20.30;99.90;;;;;;5122332;28;20734;-80
2022/08/17 02:43:38;;;;;;;7.10;6.40;;;20.30;99.90;;;;;;5122826;28;20450;-81
2022/08/17 02:46:23;;;;;;;6.70;6.07;;;20.30;99.90;;;;;;5123097;28;20440;-79
2022/08/17 02:49:08;;;;;;;6.43;5.80;;;20.30;99.90;;;;;;5107547;28;20439;-78
2022/08/17 02:51:52;;;;;;;7.57;6.77;;;20.20;99.90;;;;;;5122700;28;20391;-79
2022/08/17 02:54:36;;;;;;;7.73;7.00;;;20.20;99.90;;;;;;5122602;28;20413;-79
2022/08/17 02:57:21;;;;;;;7.60;6.90;;;20.20;99.90;;;;;;5122274;28;20445;-78
2022/08/17 03:00:11;;;;;;;9.00;7.10;;;20.10;99.90;;;;;;5123028;28;20406;-78
2022/08/17 03:02:56;;;;;;;11.13;7.60;;;20.00;99.90;;;;;;5122093;28;20457;-80
2022/08/17 03:05:40;;;;;;;10.13;7.00;;;20.10;99.90;;;;;;5106699;28;20403;-80
2022/08/17 03:08:25;;;;;;;8.00;6.30;;;20.10;99.90;;;;;;5122894;28;20454;-80
2022/08/17 03:11:09;;;;;;;7.03;6.33;;;20.10;99.90;;;;;;5123223;28;20375;-80
2022/08/17 03:13:54;;;;;;;8.10;7.30;;;20.00;99.90;;;;;;5122598;28;20758;-80
2022/08/17 03:16:39;;;;;;;8.27;7.07;;;20.10;99.90;;;;;;5123125;28;20378;-79
2022/08/17 03:19:23;;;;;;;11.03;6.60;;;19.90;99.90;;;;;;5122955;28;20383;-80
2022/08/17 03:22:08;;;;;;;9.57;7.97;;;19.90;99.90;;;;;;5123460;28;20382;-79
2022/08/17 03:24:52;;;;;;;7.00;6.40;;;19.90;99.90;;;;;;5123378;28;20398;-80
2022/08/17 03:27:37;;;;;;;11.03;6.50;;;19.90;99.90;;;;;;5123745;28;20448;-80
2022/08/17 03:30:24;;;;;;;9.70;7.00;;;19.90;99.90;;;;;;5123876;28;20399;-80
2022/08/17 03:33:09;;;;;;;7.10;6.50;;;19.80;99.90;;;;;;5122764;28;20382;-82
2022/08/17 03:35:54;;;;;;;8.57;7.47;;;19.80;99.90;;;;;;5122780;28;20437;-81
2022/08/17 03:38:39;;;;;;;7.70;7.10;;;19.80;99.90;;;;;;5123133;28;20401;-81
2022/08/17 03:41:23;;;;;;;15.90;6.57;;;19.70;99.90;;;;;;5107744;28;20391;-80
2022/08/17 03:44:07;;;;;;;7.00;6.30;;;19.70;99.90;;;;;;5123020;28;20808;-81
2022/08/17 03:58:51;;;;;;;7.63;7.00;;;19.70;99.90;;;;;;5109633;28;20496;-80
2022/08/17 04:01:36;;;;;;;7.50;6.70;;;19.70;99.90;;;;;;5122423;28;20395;-80
2022/08/17 04:04:21;;;;;;;7.73;7.03;;;19.70;99.90;;;;;;5121643;28;20395;-80
2022/08/17 04:07:07;;;;;;;7.93;7.13;;;19.70;99.90;;;;;;5122140;28;20436;-80
2022/08/17 04:09:51;;;;;;;10.10;8.10;;;19.70;99.90;;;;;;5122497;28;20412;-81
2022/08/17 04:12:48;;;;;;;7.23;6.53;;;19.70;99.90;;;;;;5122678;28;20384;-78
2022/08/17 04:15:33;;;;;;;8.07;7.37;;;19.70;99.90;;;;;;5121165;28;20391;-80
2022/08/17 04:18:19;;;;;;;7.97;7.20;;;19.60;99.90;;;;;;5088896;28;20455;-79
2022/08/17 04:21:03;;;;;;;11.87;6.40;;;19.70;99.90;;;;;;5091017;28;20420;-81
2022/08/17 04:23:49;;;;;;;8.20;7.50;;;19.70;99.90;;;;;;5080667;28;20382;-80
2022/08/17 04:26:34;;;;;;;9.00;7.23;;;19.70;99.90;;;;;;5080237;28;20935;-79
2022/08/17 04:29:18;;;;;;;8.23;7.10;;;19.70;99.90;;;;;;5080610;28;20418;-80
2022/08/17 04:32:03;;;;;;;9.53;7.40;;;19.70;99.90;;;;;;5093568;28;20474;-81
2022/08/17 04:34:47;;;;;;;8.33;7.63;;;19.70;99.90;;;;;;5080352;28;20369;-80
2022/08/17 04:37:32;;;;;;;8.53;6.80;;;19.70;99.90;;;;;;5080480;28;20924;-81
2022/08/17 04:43:17;;;;;;;7.70;6.97;;;19.70;99.90;;;;;;5081783;28;20384;-80
2022/08/17 04:46:05;;;;;;;8.27;7.40;;;19.70;99.90;;;;;;5071649;28;20451;-80
2022/08/17 04:48:52;;;;;;;14.63;8.50;;;19.70;99.90;;;;;;5100475;28;20923;-80
2022/08/17 04:51:44;;;;;;;11.53;8.20;;;19.70;99.90;;;;;;5102683;28;20376;-79
2022/08/17 04:54:29;;;;;;;9.13;6.67;;;19.70;99.90;;;;;;5102536;28;20381;-80
2022/08/17 04:57:13;;;;;;;8.57;7.67;;;19.60;99.90;;;;;;5101613;28;20857;-79
2022/08/17 04:59:57;;;;;;;9.60;8.47;;;19.70;99.90;;;;;;5088986;28;20489;-80
2022/08/17 05:02:46;;;;;;;18.80;7.80;;;19.70;99.90;;;;;;5116939;28;20472;-80
2022/08/17 05:05:35;;;;;;;20.33;8.40;;;19.70;99.90;;;;;;5114972;28;20426;-79
2022/08/17 05:08:20;;;;;;;14.60;7.00;;;19.70;99.90;;;;;;5107497;28;20501;-79
2022/08/17 05:11:04;;;;;;;11.20;8.60;;;19.70;99.90;;;;;;5119058;28;20449;-80
2022/08/17 05:13:49;;;;;;;7.80;7.00;;;19.70;99.90;;;;;;5103900;28;20461;-79
2022/08/17 05:16:33;;;;;;;8.30;7.50;;;19.80;99.90;;;;;;5103715;28;20437;-80
2022/08/17 05:19:17;;;;;;;7.33;6.73;;;19.80;99.90;;;;;;5078271;28;20447;-81
2022/08/17 05:22:04;;;;;;;8.87;7.80;;;19.90;99.90;;;;;;5085206;28;20993;-79
2022/08/17 05:24:49;;;;;;;9.00;7.77;;;19.90;99.90;;;;;;5074145;28;20420;-80
2022/08/17 05:27:35;;;;;;;13.53;7.53;;;19.90;99.90;;;;;;5050539;28;20452;-80
2022/08/17 05:30:20;;;;;;;13.90;9.10;;;20.00;99.90;;;;;;5078876;28;20417;-80
2022/08/17 05:33:08;;;;;;;8.10;7.30;;;20.00;99.90;;;;;;5078969;28;20451;-80
2022/08/17 05:35:54;;;;;;;8.87;7.23;;;20.00;99.90;;;;;;5077734;28;20412;-82
2022/08/17 05:38:38;;;;;;;7.70;7.00;;;20.10;99.90;;;;;;5074379;28;20466;-79
2022/08/17 05:41:22;;;;;;;8.67;7.77;;;20.20;99.90;;;;;;5071315;28;20439;-81
2022/08/17 05:44:07;;;;;;;7.77;7.10;;;20.20;99.90;;;;;;5072530;28;20468;-81
2022/08/17 05:46:53;;;;;;;7.87;7.07;;;20.20;99.90;;;;;;5076996;28;20400;-80
2022/08/17 05:49:37;;;;;;;9.07;7.63;;;20.30;99.90;;;;;;5077182;28;20439;-81
2022/08/17 05:52:44;;;;;;;8.20;7.50;;;20.40;99.90;;;;;;5102661;28;20423;-79
2022/08/17 05:55:53;;;;;;;13.97;8.90;;;20.50;99.90;;;;;;5103280;28;20930;-80
2022/08/17 05:58:51;;;;;;;8.20;7.50;;;20.50;99.90;;;;;;5105047;28;20435;-80
2022/08/17 06:01:54;;;;;;;10.23;8.57;;;20.50;99.90;;;;;;5118888;28;20423;-78
2022/08/17 06:04:58;;;;;;;12.70;7.83;;;20.60;99.90;;;;;;5111458;28;20470;-78
2022/08/17 06:07:52;;;;;;;7.37;6.63;;;20.60;99.90;;;;;;5099881;28;20462;-79
2022/08/17 06:11:15;;;;;;;9.03;8.13;;;20.70;99.90;;;;;;5114608;28;20475;-78
2022/08/17 06:14:24;;;;;;;8.70;7.30;;;20.70;99.90;;;;;;5112840;27;20455;-79
2022/08/17 06:17:13;;;;;;;9.70;8.37;;;20.80;99.90;;;;;;5098016;28;20428;-80
2022/08/17 06:20:04;;;;;;;8.07;7.37;;;20.80;99.90;;;;;;5114004;28;20468;-78
2022/08/17 06:22:54;;;;;;;7.77;7.00;;;20.90;99.90;;;;;;5106834;28;20435;-79
2022/08/17 06:25:46;;;;;;;14.40;8.60;;;20.70;99.90;;;;;;5110474;28;20435;-79
2022/08/17 06:28:39;;;;;;;11.00;7.80;;;20.90;99.90;;;;;;5110768;28;20458;-79
2022/08/17 06:31:31;;;;;;;7.87;6.80;;;21.00;99.90;;;;;;5110759;28;20433;-82
2022/08/17 06:34:16;;;;;;;8.73;7.83;;;21.00;99.90;;;;;;5109262;28;20432;-81
2022/08/17 06:37:19;;;;;;;11.00;7.63;;;21.10;99.90;;;;;;5110367;28;20468;-81
2022/08/17 06:40:35;;;;;;;10.30;7.53;;;21.10;99.90;;;;;;5106088;28;20481;-81
2022/08/17 06:43:33;;;;;;;7.50;6.70;;;21.10;99.90;;;;;;5101439;27;20489;-81
2022/08/17 06:46:29;;;;;;;13.27;7.70;;;21.20;99.90;;;;;;5106505;28;20432;-77
2022/08/17 06:49:32;;;;;;;9.10;7.80;;;21.30;99.90;;;;;;5099455;28;20513;-81
2022/08/17 06:52:23;;;;;;;8.37;7.63;;;21.30;99.90;;;;;;5105026;28;20481;-80
2022/08/17 06:55:12;;;;;;;12.60;7.97;;;21.40;99.90;;;;;;5103998;28;20438;-81
2022/08/17 06:58:01;;;;;;;10.33;8.17;;;21.40;99.90;;;;;;5104581;28;20960;-80
2022/08/17 07:00:49;;;;;;;9.57;7.70;;;21.50;99.90;;;;;;5108061;28;20435;-80
2022/08/17 07:03:53;;;;;;;11.10;7.83;;;21.60;99.90;;;;;;5108594;28;20504;-80
2022/08/17 07:06:55;;;;;;;8.73;7.70;;;21.60;99.90;;;;;;5116193;27;20871;-81
2022/08/17 07:09:41;;;;;;;9.07;6.77;;;21.70;99.90;;;;;;5105410;28;20442;-81
2022/08/17 07:12:36;;;;;;;8.10;7.37;;;21.80;99.90;;;;;;5096078;28;20418;-81
2022/08/17 07:15:32;;;;;;;8.97;7.60;;;21.90;99.90;;;;;;5113700;27;20416;-81
2022/08/17 07:18:17;;;;;;;10.37;7.03;;;21.90;99.90;;;;;;5116006;27;20427;-83
2022/08/17 07:21:15;;;;;;;7.43;6.67;;;22.00;99.90;;;;;;5110662;28;20474;-81
2022/08/17 07:24:19;;;;;;;8.33;7.20;;;22.10;99.90;;;;;;5109943;27;20816;-80
2022/08/17 07:27:26;;;;;;;8.37;7.60;;;22.20;99.90;;;;;;5102203;28;20450;-81
2022/08/17 07:30:19;;;;;;;16.63;6.43;;;22.40;99.90;;;;;;5095179;28;20882;-81
2022/08/17 07:33:11;;;;;;;7.73;7.00;;;22.20;99.90;;;;;;5097748;28;20430;-83
2022/08/17 07:35:57;;;;;;;6.20;5.33;;;22.30;99.90;;;;;;5103033;28;20450;-80
2022/08/17 07:38:56;;;;;;;13.13;7.40;;;22.40;99.90;;;;;;5113931;27;20515;-81
2022/08/17 07:41:41;;;;;;;9.83;6.40;;;22.50;99.90;;;;;;5106239;28;20533;-81
2022/08/17 07:44:26;;;;;;;9.13;6.13;;;22.60;99.90;;;;;;5091751;28;20885;-81
2022/08/17 07:50:25;;;;;;;7.40;5.17;;;23.00;99.90;;;;;;5105787;28;20778;-80
2022/08/17 07:53:18;;;;;;;7.07;5.73;;;23.10;99.90;;;;;;5111327;28;20464;-78
2022/08/17 07:56:03;;;;;;;7.90;5.90;;;23.30;99.90;;;;;;5101361;28;20568;-82
2022/08/17 07:59:07;;;;;;;8.07;6.40;;;23.40;99.90;;;;;;5085235;28;20424;-82
2022/08/17 08:02:33;;;;;;;9.87;6.20;;;23.50;99.90;;;;;;5112609;27;20426;-81
2022/08/17 08:05:22;;;;;;;8.13;6.70;;;23.70;99.90;;;;;;5090048;28;20430;-81
2022/08/17 08:08:23;;;;;;;8.30;6.30;;;23.90;99.90;;;;;;5097890;27;20447;-80
2022/08/17 08:11:14;;;;;;;7.20;6.13;;;24.00;99.90;;;;;;5103181;28;20427;-79
2022/08/17 08:14:28;;;;;;;8.77;6.33;;;24.10;99.90;;;;;;5092945;28;20427;-81
2022/08/17 08:17:23;;;;;;;6.53;5.63;;;24.30;99.90;;;;;;5104587;28;20432;-79
2022/08/17 08:20:08;;;;;;;11.23;5.87;;;24.50;99.90;;;;;;5086147;28;20442;-80
2022/08/17 08:23:28;;;;;;;7.40;5.90;;;24.60;99.90;;;;;;5112476;28;20493;-81
2022/08/17 08:26:40;;;;;;;6.80;5.20;;;24.60;99.90;;;;;;5102539;28;20427;-81
2022/08/17 08:29:57;;;;;;;10.10;5.30;;;24.70;99.90;;;;;;5090530;28;20503;-81
2022/08/17 08:33:11;;;;;;;5.57;5.07;;;24.70;99.90;;;;;;5100227;28;20485;-81
2022/08/17 08:36:23;;;;;;;8.83;4.47;;;24.80;99.90;;;;;;5088821;28;20444;-80
2022/08/17 08:39:22;;;;;;;11.43;4.90;;;25.00;99.90;;;;;;5091462;28;20426;-80
2022/08/17 08:42:32;;;;;;;8.73;4.80;;;25.20;99.90;;;;;;5103480;28;20910;-80
2022/08/17 08:45:37;;;;;;;7.53;4.75;;;25.20;99.90;;;;;;5100327;28;20438;-79
2022/08/17 08:48:56;;;;;;;5.30;4.80;;;25.40;99.90;;;;;;5098601;28;20686;-80
2022/08/17 08:52:23;;;;;;;13.23;4.83;;;25.60;99.90;;;;;;5101488;28;20422;-80
2022/08/17 08:55:25;;;;;;;4.40;4.10;;;25.80;99.90;;;;;;5075923;28;20487;-82
2022/08/17 08:58:18;;;;;;;5.57;5.07;;;26.00;99.90;;;;;;5088547;28;20441;-80
2022/08/17 09:01:15;;;;;;;5.83;5.33;;;26.10;99.90;;;;;;5106475;28;20446;-81
2022/08/17 09:04:17;;;;;;;5.83;4.87;;;26.20;99.90;;;;;;5110511;28;20503;-80
2022/08/17 09:07:21;;;;;;;5.33;4.67;;;26.40;99.90;;;;;;5080575;28;20482;-79
2022/08/17 09:10:24;;;;;;;5.43;4.37;;;26.50;99.90;;;;;;5102612;28;20465;-81
2022/08/17 09:13:27;;;;;;;5.73;4.60;;;26.50;99.90;;;;;;5108826;28;20440;-81
2022/08/17 09:16:28;;;;;;;3.73;3.40;;;26.70;99.90;;;;;;5086817;28;20449;-79
2022/08/17 09:19:29;;;;;;;3.87;3.57;;;27.00;99.90;;;;;;5106715;28;20418;-83
2022/08/17 09:22:41;;;;;;;4.20;3.57;;;27.20;99.90;;;;;;5089422;28;20933;-81
2022/08/17 09:25:31;;;;;;;3.70;3.50;;;27.40;99.90;;;;;;5102824;28;20454;-82
2022/08/17 09:28:20;;;;;;;3.03;2.83;;;27.60;99.90;;;;;;5093837;28;20481;-83
2022/08/17 09:31:10;;;;;;;4.00;3.70;;;27.60;96.40;;;;;;5104275;28;20422;-82
2022/08/17 09:33:57;;;;;;;7.17;3.90;;;27.80;96.40;;;;;;5107370;28;20427;-83
2022/08/17 09:36:58;;;;;;;4.03;3.80;;;27.90;96.50;;;;;;5102078;28;20444;-81
2022/08/17 09:39:58;;;;;;;3.20;2.90;;;28.00;94.00;;;;;;5082318;28;21107;-80
2022/08/17 09:42:54;;;;;;;6.10;3.53;;;28.20;93.20;;;;;;5106259;28;21833;-79
2022/08/17 09:45:49;;;;;;;3.93;3.63;;;28.40;95.70;;;;;;5081040;28;20459;-78
2022/08/17 09:48:54;;;;;;;3.40;3.20;;;28.40;93.20;;;;;;5091378;28;20447;-79
2022/08/17 09:51:48;;;;;;;3.80;3.50;;;28.60;91.20;;;;;;5051809;28;20466;-80
2022/08/17 09:54:36;;;;;;;3.43;3.13;;;28.60;91.20;;;;;;5067856;28;20483;-80
2022/08/17 09:57:53;;;;;;;4.00;3.63;;;28.80;90.10;;;;;;5084349;28;20444;-81
2022/08/17 10:00:47;;;;;;;4.20;3.90;;;28.80;90.50;;;;;;5086107;28;20997;-80
2022/08/17 10:04:03;;;;;;;3.43;3.10;;;28.80;89.70;;;;;;5071616;28;20438;-80
2022/08/17 10:07:00;;;;;;;4.97;4.30;;;29.10;86.70;;;;;;5077535;28;20454;-81
2022/08/17 10:10:14;;;;;;;4.17;3.80;;;29.00;86.00;;;;;;5091220;28;20474;-81
2022/08/17 10:13:13;;;;;;;4.60;4.10;;;28.90;86.30;;;;;;5086801;28;20950;-81
2022/08/17 10:16:10;;;;;;;4.20;3.90;;;29.10;88.30;;;;;;5075831;28;20432;-81
2022/08/17 10:19:07;;;;;;;4.50;4.10;;;29.30;86.90;;;;;;5081558;28;21023;-82
2022/08/17 10:28:00;;;;;;;3.80;3.50;;;30.50;83.70;;;;;;5095215;28;20458;-80
2022/08/17 10:30:50;;;;;;;4.60;3.80;;;30.20;79.80;;;;;;5075470;28;20420;-80
2022/08/17 10:33:49;;;;;;;5.33;4.10;;;30.60;79.70;;;;;;5082325;28;20525;-81
2022/08/17 10:36:53;;;;;;;4.30;3.80;;;30.30;79.40;;;;;;5085063;28;20423;-80
2022/08/17 10:39:56;;;;;;;3.80;3.50;;;30.50;78.70;;;;;;5086050;28;20432;-80
2022/08/17 10:42:49;;;;;;;5.60;3.30;;;30.50;76.40;;;;;;5105619;28;20434;-81
2022/08/17 10:45:45;;;;;;;4.63;4.00;;;30.50;75.80;;;;;;5086534;28;20443;-80
2022/08/17 10:48:35;;;;;;;4.40;4.07;;;30.90;74.50;;;;;;5083512;28;20911;-79
2022/08/17 10:51:37;;;;;;;4.80;4.40;;;31.10;73.60;;;;;;5083028;28;20451;-80
2022/08/17 10:54:44;;;;;;;3.87;3.67;;;31.70;72.70;;;;;;5082957;28;20419;-81
2022/08/17 10:57:37;;;;;;;4.30;3.90;;;31.20;70.60;;;;;;5099815;28;20474;-79
2022/08/17 11:00:52;;;;;;;4.63;4.23;;;31.40;70.30;;;;;;5082856;28;20515;-80
2022/08/17 11:03:46;;;;;;;5.13;3.80;;;31.70;70.90;;;;;;5086159;28;20445;-81
2022/08/17 11:06:47;;;;;;;5.47;4.60;;;31.90;68.80;;;;;;5092173;28;20555;-81
2022/08/17 11:10:01;;;;;;;4.20;3.38;;;31.30;70.70;;;;;;5096279;28;20194;-80
2022/08/17 11:13:10;;;;;;;5.50;4.10;;;32.10;66.40;;;;;;5098476;28;20181;-81
2022/08/17 11:16:11;;;;;;;5.47;3.53;;;31.90;63.80;;;;;;5077478;28;20189;-80
2022/08/17 11:19:30;;;;;;;5.03;4.57;;;32.50;66.80;;;;;;5080448;28;20211;-81
2022/08/17 11:22:43;;;;;;;4.70;4.25;;;33.40;62.10;;;;;;5081144;28;20533;-80
2022/08/17 11:25:43;;;;;;;6.82;6.20;;;32.40;63.10;;;;;;5071215;28;20206;-81
2022/08/17 11:28:53;;;;;;;4.70;4.30;;;32.60;63.60;;;;;;5003566;28;20199;-81
2022/08/17 11:32:06;;;;;;;6.00;3.72;;;32.60;61.60;;;;;;4936142;29;20246;-81
2022/08/17 11:35:28;;;;;;;11.68;3.78;;;32.90;58.40;;;;;;4859725;29;20217;-81
2022/08/17 11:38:45;;;;;;;4.57;4.18;;;34.50;59.00;;;;;;4828047;29;20221;-78
2022/08/17 11:41:51;;;;;;;3.80;3.40;;;35.60;56.80;;;;;;4810225;29;20309;-80
2022/08/17 11:44:53;;;;;;;5.85;3.55;;;36.30;54.10;;;;;;4837457;29;20290;-79
2022/08/17 11:53:59;;;;;;;4.35;3.72;;;33.80;55.50;;;;;;4825686;29;20217;-80
2022/08/17 11:57:45;;;;;;;5.68;4.57;;;34.10;55.50;;;;;;4826115;29;20237;-80
2022/08/17 12:00:54;;;;;;;7.22;4.03;;;33.60;54.50;;;;;;4824798;29;20193;-80
2022/08/17 12:03:43;;;;;;;4.47;4.18;;;33.40;54.80;;;;;;4815496;29;20198;-81
2022/08/17 12:06:53;;;;;;;4.32;4.07;;;33.30;54.90;;;;;;4836998;29;20214;-81
2022/08/17 12:09:48;;;;;;;5.75;5.25;;;33.80;55.40;;;;;;4862927;29;20637;-79
2022/08/17 12:12:42;;;;;;;4.40;4.00;;;34.50;54.50;;;;;;4888340;29;20210;-81
2022/08/17 12:15:36;;;;;;;3.83;3.53;;;34.90;53.50;;;;;;4897737;29;20284;-80
2022/08/17 12:18:26;;;;;;;3.80;3.50;;;34.90;52.40;;;;;;4931293;29;20882;-79
2022/08/17 12:21:26;;;;;;;4.43;4.13;;;34.90;53.40;;;;;;4908384;29;20219;-80
2022/08/17 12:24:34;;;;;;;9.38;3.72;;;33.70;55.00;;;;;;4918766;28;20241;-79
2022/08/17 12:27:24;;;;;;;4.30;4.00;;;33.90;54.30;;;;;;4980296;28;20624;-81
2022/08/17 12:30:14;;;;;;;4.53;4.22;;;33.10;55.50;;;;;;4992203;28;20307;-80
2022/08/17 12:33:03;;;;;;;8.77;5.38;;;32.80;55.30;;;;;;5009694;28;20825;-80
2022/08/17 12:35:57;;;;;;;4.22;3.92;;;33.50;55.00;;;;;;5035032;28;20567;-81
2022/08/17 12:38:52;;;;;;;4.50;4.03;;;34.30;53.70;;;;;;4967836;28;20307;-80
2022/08/17 12:41:59;;;;;;;3.58;3.35;;;33.70;54.20;;;;;;4961698;28;20376;-81
2022/08/17 12:44:44;;;;;;;3.78;3.47;;;34.60;53.70;;;;;;4966508;28;20268;-81
2022/08/17 12:47:32;;;;;;;4.00;3.70;;;35.40;51.30;;;;;;4982829;28;20237;-81
2022/08/17 12:50:18;;;;;;;3.85;3.60;;;35.00;50.80;;;;;;4975606;28;20350;-81
2022/08/17 12:53:15;;;;;;;5.15;4.65;;;33.50;52.60;;;;;;5003491;28;20250;-81
2022/08/17 12:56:10;;;;;;;4.63;4.22;;;32.90;54.70;;;;;;5003014;28;20243;-79
2022/08/17 12:59:17;;;;;;;4.22;3.92;;;33.20;52.70;;;;;;5011594;28;20220;-79
2022/08/17 13:02:45;;;;;;;5.22;4.82;;;33.00;54.40;;;;;;4976952;28;20196;-79
2022/08/17 13:05:47;;;;;;;4.00;3.70;;;33.10;52.40;;;;;;4940680;29;20204;-80
2022/08/17 13:08:54;;;;;;;3.70;3.42;;;32.80;53.80;;;;;;4858170;29;20238;-79
2022/08/17 13:11:54;;;;;;;4.05;3.78;;;32.70;53.10;;;;;;4844965;29;20196;-79
2022/08/17 13:14:48;;;;;;;4.60;3.88;;;32.70;53.00;;;;;;4845830;29;20637;-78
2022/08/17 13:17:36;;;;;;;3.50;3.30;;;32.50;53.40;;;;;;4792392;29;20246;-80
2022/08/17 13:20:21;;;;;;;4.55;4.15;;;32.40;53.20;;;;;;4771032;29;20199;-80
2022/08/17 13:23:19;;;;;;;4.38;3.97;;;32.00;53.90;;;;;;4762724;29;20227;-80
2022/08/17 13:26:13;;;;;;;4.63;4.20;;;31.90;54.50;;;;;;4788587;29;20200;-80
2022/08/17 13:29:22;;;;;;;4.38;3.97;;;31.90;54.30;;;;;;4774975;30;20210;-81
2022/08/17 13:32:22;;;;;;;4.78;3.95;;;31.60;53.40;;;;;;4774419;29;20386;-79
2022/08/17 13:35:32;;;;;;;5.33;4.53;;;31.50;53.30;;;;;;4773276;30;20207;-78
2022/08/17 13:38:48;;;;;;;3.70;3.37;;;31.50;54.80;;;;;;4767099;29;20245;-78
2022/08/17 13:42:24;;;;;;;4.50;4.20;;;31.50;54.70;;;;;;4860577;29;20235;-78
2022/08/17 13:45:42;;;;;;;3.80;3.60;;;31.30;54.70;;;;;;4846708;29;20232;-76
2022/08/17 13:48:32;;;;;;;5.33;3.57;;;31.20;54.30;;;;;;4851317;29;20217;-78
2022/08/17 13:51:25;;;;;;;4.50;4.20;;;31.10;55.00;;;;;;4883468;29;20584;-80
2022/08/17 13:54:24;;;;;;;4.70;4.37;;;31.00;55.40;;;;;;4882403;29;20927;-79
2022/08/17 13:57:24;;;;;;;5.43;4.20;;;30.50;57.30;;;;;;4939952;28;20464;-80
2022/08/17 14:00:17;;;;;;;4.23;3.93;;;30.50;62.20;;;;;;4915780;29;20447;-81
2022/08/17 14:03:04;;;;;;;3.60;3.30;;;30.40;58.10;;;;;;4934718;28;20564;-80
2022/08/17 14:06:09;;;;;;;5.57;4.70;;;30.60;57.00;;;;;;4958965;28;20476;-79
2022/08/17 14:08:55;;;;;;;4.57;4.17;;;30.70;57.60;;;;;;4960135;28;20426;-78
2022/08/17 14:11:47;;;;;;;3.90;3.60;;;30.80;57.20;;;;;;4947041;28;20440;-79
2022/08/17 14:14:33;;;;;;;5.00;4.00;;;31.00;58.00;;;;;;4943038;29;20410;-79
2022/08/17 14:17:18;;;;;;;5.03;4.43;;;31.10;57.40;;;;;;4927453;29;20913;-79
2022/08/17 14:20:10;;;;;;;4.27;3.97;;;31.30;58.80;;;;;;4909796;29;20972;-79
2022/08/17 14:22:55;;;;;;;4.60;4.30;;;31.40;60.60;;;;;;4915031;29;20427;-80
2022/08/17 14:25:41;;;;;;;8.47;4.67;;;32.00;60.10;;;;;;4911807;29;20571;-78
2022/08/17 14:28:27;;;;;;;4.35;4.00;;;32.30;60.30;;;;;;4922864;29;21276;-78
2022/08/17 14:31:15;;;;;;;3.30;3.08;;;32.60;59.40;;;;;;4901527;29;20554;-80
2022/08/17 14:33:59;;;;;;;5.30;4.00;;;33.00;59.20;;;;;;4914000;28;20208;-80
2022/08/17 14:36:49;;;;;;;6.28;4.75;;;32.90;59.50;;;;;;4928301;28;20252;-81
2022/08/17 14:39:33;;;;;;;5.00;4.25;;;32.50;59.30;;;;;;4996417;28;20211;-79
2022/08/17 14:42:23;;;;;;;12.82;5.20;;;32.20;61.60;;;;;;5009343;28;20202;-78
2022/08/17 14:45:10;;;;;;;4.25;3.85;;;32.10;62.10;;;;;;4989490;28;20660;-80
2022/08/17 14:47:56;;;;;;;9.32;4.20;;;32.00;61.80;;;;;;4965648;28;20200;-80
2022/08/17 14:50:43;;;;;;;4.70;4.30;;;31.50;61.70;;;;;;4923081;28;20614;-81
2022/08/17 14:53:28;;;;;;;4.22;3.78;;;31.30;62.10;;;;;;4999140;28;20172;-80
2022/08/17 14:56:18;;;;;;;4.63;4.23;;;31.20;62.60;;;;;;4990473;28;20813;-78
2022/08/17 14:59:10;;;;;;;4.83;4.17;;;31.10;62.30;;;;;;4994117;28;20197;-79
2022/08/17 15:01:55;;;;;;;5.53;4.93;;;30.80;63.40;;;;;;4983655;28;20197;-80
2022/08/17 15:04:44;;;;;;;4.27;3.97;;;30.60;65.00;;;;;;4992256;28;20220;-80
2022/08/17 15:07:29;;;;;;;4.73;4.23;;;30.40;67.50;;;;;;4996124;28;20490;-81
2022/08/17 15:10:15;;;;;;;4.27;3.87;;;30.40;65.90;;;;;;5026047;28;20442;-82
2022/08/17 15:12:59;;;;;;;5.30;4.00;;;30.50;66.20;;;;;;5020948;28;20577;-81
2022/08/17 15:15:44;;;;;;;6.03;3.87;;;30.60;67.40;;;;;;4990619;28;20466;-82
2022/08/17 15:18:29;;;;;;;5.33;4.63;;;30.60;68.30;;;;;;5038433;28;20467;-81
2022/08/17 15:21:14;;;;;;;4.80;3.80;;;30.60;67.50;;;;;;5081061;28;20439;-81
2022/08/17 15:23:59;;;;;;;4.73;4.10;;;30.50;67.40;;;;;;5064811;28;20416;-82
2022/08/17 15:26:44;;;;;;;9.83;4.17;;;30.40;66.00;;;;;;5064097;28;20404;-82
2022/08/17 15:29:29;;;;;;;7.90;4.10;;;30.60;67.90;;;;;;5086256;28;20442;-81